Terminal Aerodrome Forecast
Issued by NWS

Home | Current Version | Previous Version | Text Only | Print | Product List | Glossary Off
Versions: 1 2 3 4 5 6 7 8 9 10 11 12 13 14 15 16 17 18 19 20 21 22

000
FTUS43 KFGF 281730 AAA
TAFBJI
TAF AMD
KBJI 281730Z 2817/2918 23006KT P6SM BKN023
     FM281800 22010KT P6SM SCT028
     FM282000 20011G20KT P6SM SCT040 BKN200
     FM290000 20009KT P6SM VCTS SCT050CB BKN150
     FM290300 18006KT P6SM SCT050 BKN150
     FM291100 VRB04KT 5SM BR SKC
     FM291400 VRB04KT P6SM SKC=

USA.gov is the U.S. government's official web portal to all federal, state and local government web resources and services.